createdAt,value
2023-02-03T00:00:01.955Z,98036.16
2023-02-03T00:02:41.090Z,98032.44
2023-02-03T00:05:09.635Z,98037.75
2023-02-03T00:07:38.535Z,98037.75
2023-02-03T00:10:07.837Z,98034.44
2023-02-03T00:12:36.097Z,98030.38
2023-02-03T00:15:04.739Z,98024.03
2023-02-03T00:17:32.835Z,98030.16
2023-02-03T00:20:02.313Z,98024.63
2023-02-03T00:22:30.391Z,98021.38
2023-02-03T00:24:58.543Z,98013.19
2023-02-03T00:27:26.940Z,98008.66
2023-02-03T00:29:55.078Z,98001.25
2023-02-03T00:32:23.444Z,98009.09
2023-02-03T00:34:53.966Z,98013.06
2023-02-03T00:37:24.398Z,98006.91
2023-02-03T00:39:52.628Z,98016.88
2023-02-03T00:42:20.755Z,98019.75
2023-02-03T00:44:48.864Z,98013.28
2023-02-03T00:47:17.037Z,98021.25
2023-02-03T00:49:45.182Z,98010.03
2023-02-03T00:52:13.278Z,98006.22
2023-02-03T00:54:42.730Z,98004.69
2023-02-03T00:57:10.879Z,98010.84
2023-02-03T00:59:40.640Z,98007.97
2023-02-03T01:02:09.020Z,98002.03
2023-02-03T01:04:37.187Z,98008.41
2023-02-03T01:07:05.535Z,98005.19
2023-02-03T01:09:34.749Z,98004.34
2023-02-03T01:12:04.496Z,98003.53
2023-02-03T01:14:32.807Z,98001.09
2023-02-03T01:17:01.503Z,97997.06
2023-02-03T01:19:29.692Z,98000.50
2023-02-03T01:21:57.816Z,97997.84
2023-02-03T01:24:25.884Z,97999.94
2023-02-03T01:26:53.928Z,97995.44
2023-02-03T01:29:23.548Z,97994.41
2023-02-03T01:31:51.921Z,97994.97
2023-02-03T01:34:20.649Z,97997.84
2023-02-03T01:36:48.719Z,97991.28
2023-02-03T01:39:16.939Z,97996.38
2023-02-03T01:41:47.176Z,97993.13
2023-02-03T01:44:44.027Z,97988.84
2023-02-03T01:47:18.917Z,97988.03
2023-02-03T01:49:50.448Z,97994.97
2023-02-03T01:52:18.916Z,97989.66
2023-02-03T01:54:49.418Z,97990.47
2023-02-03T01:57:21.658Z,97987.59
2023-02-03T01:59:52.804Z,97992.69
2023-02-03T02:02:21.331Z,97987.59
2023-02-03T02:04:54.134Z,97987.38
2023-02-03T02:07:22.437Z,97981.47
2023-02-03T02:09:50.603Z,97987.59
2023-02-03T02:12:18.725Z,97981.47
2023-02-03T02:14:47.436Z,97987.59
2023-02-03T02:17:27.725Z,97979.84
2023-02-03T02:20:40.479Z,97982.28
2023-02-03T02:23:34.080Z,97994.53
2023-02-03T02:26:26.779Z,97990.84
2023-02-03T02:32:50.914Z,97983.44
2023-02-03T02:35:23.450Z,97983.91
2023-02-03T02:37:55.397Z,97990.38
2023-02-03T02:40:27.229Z,97995.69
2023-02-03T02:43:09.894Z,97978.13
2023-02-03T02:45:45.895Z,97980.34
2023-02-03T02:48:20.401Z,97967.50
2023-02-03T02:50:51.430Z,97972.81
2023-02-03T02:53:20.520Z,97977.69
2023-02-03T02:55:50.378Z,97983.00
2023-02-03T02:58:19.725Z,97984.59
2023-02-03T03:00:48.459Z,97969.22
2023-02-03T03:03:20.034Z,97970.84
2023-02-03T03:05:53.081Z,97964.50
2023-02-03T03:08:28.557Z,97965.06
2023-02-03T03:10:58.420Z,97966.13
2023-02-03T03:13:31.126Z,97964.84
2023-02-03T03:16:01.474Z,97968.09
2023-02-03T03:18:33.645Z,97975.84
2023-02-03T03:21:06.224Z,97972.94
2023-02-03T03:23:39.361Z,97962.56
2023-02-03T03:26:12.294Z,97944.75
2023-02-03T03:28:47.073Z,97934.91
2023-02-03T03:31:15.477Z,97942.44
2023-02-03T03:33:45.868Z,97933.75
2023-02-03T03:36:20.930Z,97936.19
2023-02-03T03:38:54.760Z,97937.22
2023-02-03T03:41:28.219Z,97957.47
2023-02-03T03:43:57.921Z,97960.13
2023-02-03T03:46:28.922Z,97945.31
2023-02-03T03:49:00.663Z,97952.25
2023-02-03T03:51:32.483Z,97942.22
2023-02-03T03:54:05.136Z,97947.06
2023-02-03T03:56:35.734Z,97948.22
2023-02-03T03:59:04.579Z,97961.06
2023-02-03T04:01:33.765Z,97963.13
2023-02-03T04:04:04.782Z,97963.72
2023-02-03T04:06:32.967Z,97972.72
2023-02-03T04:09:02.295Z,97965.13
2023-02-03T04:11:48.059Z,97971.25
2023-02-03T04:14:16.268Z,97964.75
2023-02-03T04:16:44.457Z,97962.69
2023-02-03T04:19:13.933Z,97961.28
2023-02-03T04:21:42.116Z,97957.81
2023-02-03T04:24:10.382Z,97934.22
2023-02-03T04:26:38.466Z,97929.72
2023-02-03T04:29:06.844Z,97952.84
2023-02-03T04:31:35.784Z,97955.72
2023-02-03T04:34:03.954Z,97967.53
2023-02-03T04:36:33.543Z,97986.16
2023-02-03T04:39:01.837Z,97985.09
2023-02-03T04:41:30.136Z,97990.44
2023-02-03T04:43:58.291Z,97997.38
2023-02-03T04:46:26.572Z,97988.34
2023-02-03T04:48:54.696Z,97996.91
2023-02-03T04:51:23.045Z,97995.88
2023-02-03T04:53:52.625Z,97981.75
2023-02-03T04:56:20.857Z,97979.09
2023-02-03T04:58:48.942Z,97987.06
2023-02-03T05:01:17.218Z,97979.44
2023-02-03T05:03:45.494Z,97985.81
2023-02-03T05:06:13.695Z,97975.97
2023-02-03T05:08:42.200Z,97976.44
2023-02-03T05:11:11.937Z,97968.44
2023-02-03T05:13:40.377Z,97968.22
2023-02-03T05:16:08.528Z,97952.47
2023-02-03T05:18:36.945Z,97952.75
2023-02-03T05:21:05.476Z,97952.75
2023-02-03T05:23:36.130Z,97962.09
2023-02-03T05:26:05.064Z,97969.03
2023-02-03T05:28:34.693Z,97957.13
2023-02-03T05:31:03.551Z,97942.19
2023-02-03T05:33:31.972Z,97937.69
2023-02-03T05:36:00.054Z,97950.19
2023-02-03T05:38:28.292Z,97948.56
2023-02-03T05:41:13.683Z,97947.31
2023-02-03T05:43:43.199Z,97951.00
2023-02-03T05:46:11.436Z,97963.00
2023-02-03T05:48:39.776Z,97958.72
2023-02-03T05:51:07.877Z,97950.75
2023-02-03T05:53:36.022Z,97951.00
2023-02-03T05:56:04.264Z,97948.56
2023-02-03T05:58:32.736Z,97953.88
2023-02-03T06:01:02.205Z,97948.56
2023-02-03T06:03:30.518Z,97944.06
2023-02-03T06:05:59.024Z,97932.38
2023-02-03T06:08:28.693Z,97932.13
2023-02-03T06:10:59.830Z,97952.38
2023-02-03T06:13:28.623Z,97957.13
2023-02-03T06:15:57.390Z,97945.91
2023-02-03T06:18:27.025Z,97949.00
2023-02-03T06:20:55.305Z,97945.78
2023-02-03T06:23:23.419Z,97955.63
2023-02-03T06:25:52.407Z,97956.44
2023-02-03T06:28:20.753Z,97940.00
2023-02-03T06:30:51.302Z,97942.09
2023-02-03T06:33:19.773Z,97952.75
2023-02-03T06:35:49.541Z,97946.81
2023-02-03T06:38:17.750Z,97949.50
2023-02-03T06:40:48.057Z,97955.41
2023-02-03T06:43:16.352Z,97963.38
2023-02-03T06:45:47.069Z,97958.50
2023-02-03T06:48:15.721Z,97964.19
2023-02-03T06:50:44.073Z,97963.00
2023-02-03T06:53:13.628Z,97968.69
2023-02-03T06:55:41.742Z,97970.78
2023-02-03T06:58:10.028Z,97970.78
2023-02-03T07:00:38.218Z,97957.47
2023-02-03T07:03:06.803Z,97948.44
2023-02-03T07:05:36.904Z,97932.50
2023-02-03T07:08:05.208Z,97940.47
2023-02-03T07:10:34.721Z,97935.16
2023-02-03T07:13:04.424Z,97922.88
2023-02-03T07:15:32.652Z,97926.25
2023-02-03T07:18:00.882Z,97905.78
2023-02-03T07:20:30.149Z,97907.16
2023-02-03T07:22:59.290Z,97911.22
2023-02-03T07:25:27.598Z,97926.13
2023-02-03T07:27:57.254Z,97936.28
2023-02-03T07:30:25.880Z,97929.94
2023-02-03T07:32:54.571Z,97935.84
2023-02-03T07:35:22.748Z,97935.59
2023-02-03T07:37:51.002Z,97927.38
2023-02-03T07:40:19.442Z,97924.28
2023-02-03T07:42:48.896Z,97908.06
2023-02-03T07:45:19.594Z,97902.50
2023-02-03T07:47:47.787Z,97899.84
2023-02-03T07:50:15.965Z,97910.03
2023-02-03T07:52:44.154Z,97920.69
2023-02-03T07:55:12.693Z,97908.72
2023-02-03T07:57:43.556Z,97915.09
2023-02-03T08:00:14.191Z,97914.63
2023-02-03T08:02:44.189Z,97929.81
2023-02-03T08:05:13.143Z,97941.03
2023-02-03T08:07:41.445Z,97933.03
2023-02-03T08:10:11.833Z,97935.00
2023-02-03T08:12:39.996Z,97950.16
2023-02-03T08:15:09.087Z,97949.66
2023-02-03T08:17:40.128Z,97957.44
2023-02-03T08:20:11.688Z,97959.88
2023-02-03T08:22:40.125Z,97954.53
2023-02-03T08:25:09.360Z,97949.81
2023-02-03T08:27:37.990Z,97942.16
2023-02-03T08:30:07.140Z,97937.63
2023-02-03T08:32:35.467Z,97948.28
2023-02-03T08:35:04.351Z,97950.94
2023-02-03T08:37:34.432Z,97932.53
2023-02-03T08:40:02.547Z,97931.81
2023-02-03T08:42:30.719Z,97931.38
2023-02-03T08:44:58.868Z,97920.22
2023-02-03T08:47:28.374Z,97922.44
2023-02-03T08:49:56.498Z,97934.94
2023-02-03T08:52:24.628Z,97935.53
2023-02-03T08:54:54.211Z,97947.53
2023-02-03T08:57:22.508Z,97940.38
2023-02-03T08:59:51.288Z,97922.53
2023-02-03T09:03:08.641Z,97901.81
2023-02-03T09:05:36.788Z,97903.41
2023-02-03T09:08:05.210Z,97901.56
2023-02-03T09:10:34.875Z,97881.63
2023-02-03T09:13:03.010Z,97889.13
2023-02-03T09:15:31.083Z,97895.28
2023-02-03T09:17:59.236Z,97904.66
2023-02-03T09:20:27.883Z,97918.06
2023-02-03T09:22:59.593Z,97913.78
2023-02-03T09:25:27.749Z,97916.44
2023-02-03T09:27:57.245Z,97912.97
2023-02-03T09:30:25.669Z,97907.91
2023-02-03T09:32:56.535Z,97904.16
2023-02-03T09:35:26.930Z,97880.78
2023-02-03T09:37:55.088Z,97894.19
2023-02-03T09:40:26.228Z,97899.50
2023-02-03T09:43:03.355Z,97891.28
2023-02-03T09:45:32.142Z,97892.09
2023-02-03T09:48:04.005Z,97901.22
2023-02-03T09:50:35.171Z,97899.38
2023-02-03T09:53:07.053Z,97879.19
2023-02-03T09:55:37.963Z,97875.81
2023-02-03T09:58:11.961Z,97891.31
2023-02-03T10:00:44.392Z,97896.19
2023-02-03T10:03:21.806Z,97898.28
2023-02-03T10:06:09.448Z,97898.28
2023-02-03T10:08:48.059Z,97897.81
2023-02-03T10:11:24.242Z,97887.78
2023-02-03T10:14:03.700Z,97892.16
2023-02-03T10:16:46.994Z,97893.31
2023-02-03T10:19:20.719Z,97893.63
2023-02-03T10:21:52.576Z,97903.00
2023-02-03T10:24:23.526Z,97901.16
2023-02-03T10:26:52.238Z,97901.22
2023-02-03T10:29:23.936Z,97892.50
2023-02-03T10:31:52.021Z,97894.13
2023-02-03T10:34:20.629Z,97886.66
2023-02-03T10:36:55.824Z,97884.56
2023-02-03T10:39:34.585Z,97876.56
2023-02-03T10:42:04.508Z,97872.28
2023-02-03T10:44:38.378Z,97889.44
2023-02-03T10:47:20.631Z,97883.28
2023-02-03T10:49:50.735Z,97882.94
2023-02-03T10:52:28.355Z,97887.16
2023-02-03T10:54:59.262Z,97890.41
2023-02-03T10:57:29.548Z,97903.00
2023-02-03T11:00:09.814Z,97888.94
2023-02-03T11:02:38.082Z,97881.53
2023-02-03T11:05:21.081Z,97867.59
2023-02-03T11:07:49.889Z,97865.53
2023-02-03T11:10:34.349Z,97853.81
2023-02-03T11:13:13.836Z,97869.91
2023-02-03T11:15:53.030Z,97854.44
2023-02-03T11:18:35.917Z,97850.19
2023-02-03T11:21:09.306Z,97836.28
2023-02-03T11:23:37.882Z,97828.84
2023-02-03T11:26:14.389Z,97834.25
2023-02-03T11:28:44.881Z,97817.75
2023-02-03T11:31:20.053Z,97823.66
2023-02-03T11:33:50.124Z,97819.41
2023-02-03T11:36:19.249Z,97806.66
2023-02-03T11:38:47.459Z,97794.94
2023-02-03T11:41:19.678Z,97804.53
2023-02-03T11:43:48.387Z,97788.03
2023-02-03T11:46:18.650Z,97771.28
2023-02-03T11:48:57.960Z,97760.84
2023-02-03T11:51:32.755Z,97748.06
2023-02-03T11:54:11.863Z,97733.69
2023-02-03T11:57:05.187Z,97730.50
2023-02-03T11:59:56.569Z,97737.69
2023-02-03T12:02:48.810Z,97732.38
2023-02-03T12:05:31.015Z,97718.31
2023-02-03T12:08:09.717Z,97728.47
2023-02-03T12:10:48.136Z,97728.47
2023-02-03T12:13:35.097Z,97714.88
2023-02-03T12:16:15.290Z,97709.03
2023-02-03T12:18:53.997Z,97702.91
2023-02-03T12:21:44.544Z,97716.84
2023-02-03T12:24:25.000Z,97697.06
2023-02-03T12:26:58.687Z,97718.69
2023-02-03T12:29:32.489Z,97717.09
2023-02-03T12:32:06.856Z,97721.69
2023-02-03T12:34:39.395Z,97707.81
2023-02-03T12:37:10.122Z,97709.44
2023-02-03T12:39:44.614Z,97706.53
2023-02-03T12:42:17.209Z,97706.78
2023-02-03T12:44:50.367Z,97713.16
2023-02-03T12:47:25.770Z,97703.25
2023-02-03T12:49:58.208Z,97715.78
2023-02-03T12:52:30.095Z,97699.72
2023-02-03T12:55:07.665Z,97696.47
2023-02-03T12:57:38.329Z,97706.09
2023-02-03T13:00:19.713Z,97699.16
2023-02-03T13:02:59.357Z,97702.38
2023-02-03T13:05:34.549Z,97703.69
2023-02-03T13:08:09.105Z,97692.75
2023-02-03T13:10:42.012Z,97689.03
2023-02-03T13:13:13.441Z,97694.94
2023-02-03T13:15:45.515Z,97697.84
2023-02-03T13:18:20.501Z,97696.25
2023-02-03T13:20:49.984Z,97693.56
2023-02-03T13:23:18.463Z,97686.88
2023-02-03T13:26:00.690Z,97682.34
2023-02-03T13:28:37.893Z,97679.38
2023-02-03T13:31:16.824Z,97667.09
2023-02-03T13:33:55.514Z,97658.25
2023-02-03T13:36:41.410Z,97656.97
2023-02-03T13:39:38.514Z,97658.84
2023-02-03T13:42:21.529Z,97659.31
2023-02-03T13:44:53.121Z,97636.91
2023-02-03T13:47:24.400Z,97639.88
2023-02-03T13:49:54.909Z,97637.25
2023-02-03T13:52:35.758Z,97630.28
2023-02-03T13:55:04.428Z,97626.00
2023-02-03T13:57:36.970Z,97608.94
2023-02-03T14:00:07.149Z,97609.75
2023-02-03T14:02:46.790Z,97604.41
2023-02-03T14:05:49.283Z,97599.34
2023-02-03T14:08:53.982Z,97595.88
2023-02-03T14:11:42.627Z,97619.09
2023-02-03T14:14:45.771Z,97599.34
2023-02-03T14:18:04.892Z,97596.69
2023-02-03T14:20:41.666Z,97570.56
2023-02-03T14:23:14.040Z,97560.38
2023-02-03T14:26:07.792Z,97555.03
2023-02-03T14:28:42.309Z,97552.94
2023-02-03T14:31:19.423Z,97555.34
2023-02-03T14:33:59.613Z,97522.53
2023-02-03T14:36:30.292Z,97517.19
2023-02-03T14:39:01.624Z,97507.81
2023-02-03T14:41:39.314Z,97508.38
2023-02-03T14:44:16.012Z,97522.75
2023-02-03T14:47:05.897Z,97516.34
2023-02-03T14:49:46.062Z,97522.47
2023-02-03T14:52:27.398Z,97540.13
2023-02-03T14:55:08.767Z,97553.47
2023-02-03T14:57:41.233Z,97564.88
2023-02-03T15:00:27.817Z,97549.41
2023-02-03T15:03:20.091Z,97571.25
2023-02-03T15:05:50.397Z,97571.53
2023-02-03T15:08:44.386Z,97575.81
2023-02-03T15:11:27.026Z,97582.75
2023-02-03T15:13:56.437Z,97584.88
2023-02-03T15:16:27.269Z,97593.94
2023-02-03T15:18:57.889Z,97574.19
2023-02-03T15:21:26.569Z,97567.25
2023-02-03T15:23:55.357Z,97544.03
2023-02-03T15:26:25.105Z,97574.19
2023-02-03T15:28:57.562Z,97562.97
2023-02-03T15:31:34.059Z,97566.44
2023-02-03T15:34:07.089Z,97559.50
2023-02-03T15:36:43.216Z,97549.88
2023-02-03T15:39:21.676Z,97518.13
2023-02-03T15:41:51.451Z,97542.69
2023-02-03T15:44:27.449Z,97551.72
2023-02-03T15:46:57.207Z,97557.88
2023-02-03T15:49:28.352Z,97582.69
2023-02-03T15:51:58.655Z,97581.34
2023-02-03T15:54:31.431Z,97591.22
2023-02-03T15:57:01.947Z,97584.84
2023-02-03T15:59:33.816Z,97588.00
2023-02-03T16:02:08.486Z,97594.94
2023-02-03T16:04:36.720Z,97596.81
2023-02-03T16:07:04.836Z,97591.22
2023-02-03T16:09:34.786Z,97587.22
2023-02-03T16:12:12.891Z,97595.50
2023-02-03T16:14:41.201Z,97583.22
2023-02-03T16:17:23.921Z,97590.09
2023-02-03T16:19:52.390Z,97588.97
2023-02-03T16:22:32.245Z,97590.53
2023-02-03T16:25:14.416Z,97593.69
2023-02-03T16:27:45.832Z,97593.88
2023-02-03T16:30:41.185Z,97582.09
2023-02-03T16:36:42.991Z,97589.16
2023-02-03T16:39:31.070Z,97586.44
2023-02-03T16:42:17.226Z,97581.56
2023-02-03T16:45:03.420Z,97573.56
2023-02-03T16:47:50.600Z,97563.38
2023-02-03T16:53:33.019Z,97582.78
2023-02-03T16:56:04.466Z,97588.63
2023-02-03T16:58:33.382Z,97576.13
2023-02-03T17:01:03.092Z,97576.34
2023-02-03T17:03:32.831Z,97586.22
2023-02-03T17:06:05.810Z,97590.72
2023-02-03T17:08:35.651Z,97596.31
2023-02-03T17:11:05.511Z,97603.75
2023-02-03T17:13:34.309Z,97605.63
2023-02-03T17:16:02.534Z,97604.81
2023-02-03T17:18:31.423Z,97606.91
2023-02-03T17:21:07.232Z,97591.72
2023-02-03T17:23:35.496Z,97593.81
2023-02-03T17:26:28.590Z,97598.84
2023-02-03T17:28:58.656Z,97581.75
2023-02-03T17:31:26.811Z,97580.63
2023-02-03T17:33:55.136Z,97567.75
2023-02-03T17:36:24.908Z,97558.09
2023-02-03T17:55:31.485Z,97497.31
2023-02-03T17:57:59.770Z,97523.44
2023-02-03T18:00:28.328Z,97518.38
2023-02-03T18:02:57.746Z,97519.94
2023-02-03T18:05:26.271Z,97532.78
2023-02-03T18:07:55.753Z,97500.84
2023-02-03T18:10:23.848Z,97463.00
2023-02-03T18:12:51.945Z,97497.59
2023-02-03T18:15:20.169Z,97534.41
2023-02-03T18:17:48.264Z,97557.31
2023-02-03T18:20:16.439Z,97583.22
2023-02-03T18:22:45.121Z,97577.94
2023-02-03T18:25:17.216Z,97589.41
2023-02-03T18:27:45.512Z,97582.00
2023-02-03T18:30:15.155Z,97588.13
2023-02-03T18:32:43.263Z,97562.38
2023-02-03T18:35:16.711Z,97560.25
2023-02-03T18:37:45.425Z,97531.75
2023-02-03T18:40:14.960Z,97538.69
2023-02-03T18:42:43.064Z,97548.53
2023-02-03T18:45:11.701Z,97527.78
2023-02-03T18:47:40.321Z,97494.78
2023-02-03T18:50:08.861Z,97494.22
2023-02-03T18:52:38.045Z,97533.13
2023-02-03T18:55:06.676Z,97572.31
2023-02-03T18:57:36.239Z,97571.03
2023-02-03T19:00:05.508Z,97568.38
2023-02-03T19:02:33.594Z,97568.09
2023-02-03T19:05:01.722Z,97542.28
2023-02-03T19:07:30.011Z,97537.19
2023-02-03T19:09:58.243Z,97547.06
2023-02-03T19:12:27.611Z,97547.06
2023-02-03T19:14:57.058Z,97561.44
2023-02-03T19:17:25.210Z,97561.97
2023-02-03T19:19:53.353Z,97581.19
2023-02-03T19:22:21.732Z,97576.09
2023-02-03T19:24:49.814Z,97583.03
2023-02-03T19:27:17.917Z,97562.53
2023-02-03T19:29:45.990Z,97537.50
2023-02-03T19:32:15.460Z,97544.75
2023-02-03T19:34:43.594Z,97545.25
2023-02-03T19:37:11.791Z,97538.63
2023-02-03T19:39:39.838Z,97548.22
2023-02-03T19:42:08.387Z,97566.63
2023-02-03T19:44:37.276Z,97566.38
2023-02-03T19:47:05.524Z,97567.97
2023-02-03T19:49:39.010Z,97569.59
2023-02-03T19:52:09.100Z,97565.38
2023-02-03T19:54:37.414Z,97589.13
2023-02-03T19:57:05.679Z,97583.31
2023-02-03T19:59:33.771Z,97605.44
2023-02-03T20:02:12.589Z,97608.63
2023-02-03T20:04:44.247Z,97593.22
2023-02-03T20:07:13.475Z,97588.69
2023-02-03T20:09:41.663Z,97599.34
2023-02-03T20:12:09.999Z,97579.38
2023-02-03T20:14:38.243Z,97584.69
2023-02-03T20:17:07.545Z,97580.44
2023-02-03T20:19:35.802Z,97584.16
2023-02-03T20:22:05.320Z,97586.84
2023-02-03T20:24:33.398Z,97614.59
2023-02-03T20:27:01.582Z,97605.53
2023-02-03T20:29:29.658Z,97616.78
2023-02-03T20:31:58.685Z,97599.69
2023-02-03T20:34:27.473Z,97597.78
2023-02-03T20:36:58.501Z,97600.69
2023-02-03T20:39:28.618Z,97625.50
2023-02-03T20:41:56.701Z,97633.66
2023-02-03T20:44:24.791Z,97638.94
2023-02-03T20:46:53.544Z,97633.31
2023-02-03T20:49:21.738Z,97615.88
2023-02-03T20:51:49.808Z,97624.38
2023-02-03T20:54:19.326Z,97633.91
2023-02-03T20:56:49.881Z,97652.00
2023-02-03T20:59:19.515Z,97640.31
2023-02-03T21:01:49.067Z,97637.31
2023-02-03T21:04:51.018Z,97611.41
2023-02-03T21:07:19.168Z,97652.19
2023-02-03T21:09:47.512Z,97653.00
2023-02-03T21:12:17.220Z,97648.22
2023-02-03T21:14:49.093Z,97647.41
2023-02-03T21:17:18.851Z,97650.97
2023-02-03T21:19:47.428Z,97646.69
2023-02-03T21:22:21.538Z,97637.56
2023-02-03T21:24:51.779Z,97652.50
2023-02-03T21:27:28.630Z,97642.34
2023-02-03T21:29:57.627Z,97644.44
2023-02-03T21:32:27.210Z,97638.28
2023-02-03T21:34:55.320Z,97639.09
2023-02-03T21:37:40.228Z,97644.94
2023-02-03T21:40:25.066Z,97653.47
2023-02-03T21:42:55.418Z,97655.59
2023-02-03T21:45:30.996Z,97657.19
2023-02-03T21:48:00.058Z,97663.81
2023-02-03T21:50:30.614Z,97656.06
2023-02-03T21:53:01.616Z,97660.81
2023-02-03T21:55:29.761Z,97648.59
2023-02-03T21:57:59.296Z,97665.09
2023-02-03T22:00:42.870Z,97662.94
2023-02-03T22:03:20.249Z,97668.03
2023-02-03T22:05:48.556Z,97669.31
2023-02-03T22:08:19.581Z,97693.28
2023-02-03T22:10:47.824Z,97673.59
2023-02-03T22:13:17.268Z,97683.69
2023-02-03T22:15:45.351Z,97697.00
2023-02-03T22:18:13.440Z,97702.09
2023-02-03T22:20:41.582Z,97698.38
2023-02-03T22:23:09.950Z,97693.88
2023-02-03T22:25:38.105Z,97700.00
2023-02-03T22:28:06.595Z,97720.50
2023-02-03T22:30:36.373Z,97709.84
2023-02-03T22:33:04.680Z,97721.31
2023-02-03T22:35:32.888Z,97716.44
2023-02-03T22:38:00.967Z,97713.56
2023-02-03T22:40:29.552Z,97738.34
2023-02-03T22:42:57.769Z,97735.50
2023-02-03T22:45:25.846Z,97717.41
2023-02-03T22:47:56.564Z,97737.59
2023-02-03T22:50:34.763Z,97746.94
2023-02-03T22:53:04.706Z,97755.19
2023-02-03T22:55:33.014Z,97759.22
2023-02-03T22:58:01.142Z,97759.56
2023-02-03T23:00:29.722Z,97762.94
2023-02-03T23:03:00.375Z,97767.78
2023-02-03T23:05:28.632Z,97760.03
2023-02-03T23:07:56.778Z,97768.59
2023-02-03T23:10:30.868Z,97778.44
2023-02-03T23:13:00.742Z,97778.75
2023-02-03T23:15:29.222Z,97780.88
2023-02-03T23:17:58.819Z,97782.56
2023-02-03T23:20:26.959Z,97783.63
2023-02-03T23:22:55.127Z,97778.28
2023-02-03T23:25:23.394Z,97784.44
2023-02-03T23:27:51.640Z,97789.59
2023-02-03T23:30:20.095Z,97779.41
2023-02-03T23:32:48.213Z,97782.16
2023-02-03T23:35:35.557Z,97792.25
2023-02-03T23:38:03.962Z,97796.53
2023-02-03T23:40:32.359Z,97809.94
2023-02-03T23:43:00.657Z,97820.59
2023-02-03T23:45:28.748Z,97811.47
2023-02-03T23:47:56.946Z,97816.88
2023-02-03T23:50:26.499Z,97821.72
2023-02-03T23:52:54.565Z,97820.75
2023-02-03T23:55:23.546Z,97825.03
2023-02-03T23:57:51.734Z,97827.94
